createdAt,value
2022-08-21T00:02:16.501Z,2.90
2022-08-21T00:04:57.354Z,3.33
2022-08-21T00:07:26.910Z,4.20
2022-08-21T00:09:55.730Z,4.28
2022-08-21T00:12:24.980Z,4.03
2022-08-21T00:14:57.169Z,4.03
2022-08-21T00:17:27.274Z,3.63
2022-08-21T00:19:56.021Z,3.67
2022-08-21T00:22:24.751Z,3.95
2022-08-21T00:24:53.452Z,4.00
2022-08-21T00:27:22.137Z,4.28
2022-08-21T00:29:50.902Z,4.72
2022-08-21T00:32:23.758Z,4.40
2022-08-21T00:34:52.734Z,4.20
2022-08-21T00:37:22.661Z,4.15
2022-08-21T00:39:52.360Z,3.40
2022-08-21T00:42:21.370Z,3.70
2022-08-21T00:44:51.855Z,3.35
2022-08-21T00:47:21.894Z,3.17
2022-08-21T00:49:52.053Z,3.22
2022-08-21T00:52:26.333Z,3.30
2022-08-21T00:54:57.793Z,3.55
2022-08-21T00:57:30.760Z,3.80
2022-08-21T01:00:02.906Z,3.42
2022-08-21T01:02:31.569Z,3.90
2022-08-21T01:05:01.664Z,3.42
2022-08-21T01:07:31.263Z,3.15
2022-08-21T01:10:00.333Z,3.55
2022-08-21T01:12:29.729Z,3.30
2022-08-21T01:14:58.923Z,3.58
2022-08-21T01:17:29.306Z,3.78
2022-08-21T01:20:01.278Z,3.35
2022-08-21T01:22:31.348Z,3.78
2022-08-21T01:25:00.021Z,3.53
2022-08-21T01:27:29.187Z,3.38
2022-08-21T01:30:03.101Z,3.50
2022-08-21T01:32:35.339Z,3.97
2022-08-21T01:35:06.080Z,3.47
2022-08-21T01:37:36.300Z,3.70
2022-08-21T01:40:07.181Z,4.10
2022-08-21T01:42:36.797Z,3.40
2022-08-21T01:45:06.434Z,3.47
2022-08-21T01:47:35.347Z,3.45
2022-08-21T01:50:06.391Z,3.15
2022-08-21T01:52:36.488Z,3.42
2022-08-21T01:55:06.296Z,3.70
2022-08-21T01:57:35.345Z,3.70
2022-08-21T02:00:06.974Z,3.40
2022-08-21T02:02:41.979Z,3.45
2022-08-21T02:05:12.611Z,3.20
2022-08-21T02:07:45.471Z,3.40
2022-08-21T02:10:16.651Z,3.60
2022-08-21T02:12:45.306Z,3.15
2022-08-21T02:15:14.213Z,3.00
2022-08-21T02:17:46.037Z,3.25
2022-08-21T02:20:38.860Z,3.13
2022-08-21T02:23:12.052Z,3.35
2022-08-21T02:25:40.925Z,3.60
2022-08-21T02:28:17.309Z,4.20
2022-08-21T02:30:49.410Z,3.55
2022-08-21T02:33:18.595Z,4.22
2022-08-21T02:35:48.591Z,3.85
2022-08-21T02:38:21.652Z,5.30
2022-08-21T02:40:53.016Z,3.85
2022-08-21T02:43:23.515Z,3.60
2022-08-21T02:45:53.861Z,3.90
2022-08-21T02:48:25.150Z,3.35
2022-08-21T02:50:56.014Z,3.42
2022-08-21T02:53:26.797Z,3.85
2022-08-21T02:55:56.541Z,3.50
2022-08-21T02:58:29.159Z,4.07
2022-08-21T03:00:59.201Z,3.30
2022-08-21T03:03:29.029Z,3.60
2022-08-21T03:05:58.044Z,3.90
2022-08-21T03:08:28.038Z,3.78
2022-08-21T03:10:56.785Z,3.75
2022-08-21T03:13:25.440Z,3.70
2022-08-21T03:15:54.116Z,3.90
2022-08-21T03:18:23.166Z,3.55
2022-08-21T03:20:52.425Z,3.10
2022-08-21T03:23:21.127Z,3.10
2022-08-21T03:25:52.001Z,3.35
2022-08-21T03:28:24.453Z,3.33
2022-08-21T03:30:53.799Z,3.70
2022-08-21T03:33:23.478Z,3.85
2022-08-21T03:35:59.906Z,4.25
2022-08-21T03:38:29.803Z,4.75
2022-08-21T03:41:00.917Z,4.57
2022-08-21T03:43:30.970Z,3.65
2022-08-21T03:46:03.024Z,3.80
2022-08-21T03:48:31.731Z,4.65
2022-08-21T03:51:00.582Z,4.20
2022-08-21T03:53:29.752Z,3.60
2022-08-21T03:56:00.037Z,3.92
2022-08-21T03:58:30.186Z,3.75
2022-08-21T04:01:02.136Z,3.38
2022-08-21T04:03:31.032Z,3.70
2022-08-21T04:06:00.089Z,3.65
2022-08-21T04:08:28.931Z,4.35
2022-08-21T04:11:00.361Z,4.50
2022-08-21T04:13:29.856Z,4.50
2022-08-21T04:16:00.079Z,4.30
2022-08-21T04:18:28.797Z,4.40
2022-08-21T04:20:59.753Z,4.28
2022-08-21T04:23:29.162Z,4.50
2022-08-21T04:26:00.307Z,4.40
2022-08-21T04:28:30.468Z,4.65
2022-08-21T04:31:00.374Z,4.85
2022-08-21T04:33:29.149Z,5.43
2022-08-21T04:35:57.795Z,4.70
2022-08-21T04:38:27.271Z,4.45
2022-08-21T04:41:07.365Z,4.93
2022-08-21T04:43:36.535Z,3.55
2022-08-21T04:46:05.327Z,3.78
2022-08-21T04:48:34.893Z,3.88
2022-08-21T04:51:08.442Z,4.25
2022-08-21T04:53:40.283Z,4.50
2022-08-21T04:56:14.345Z,5.93
2022-08-21T04:58:43.899Z,5.90
2022-08-21T05:01:23.565Z,5.57
2022-08-21T05:03:56.234Z,5.30
2022-08-21T05:06:26.884Z,6.03
2022-08-21T05:09:02.042Z,6.90
2022-08-21T05:11:33.337Z,7.28
2022-08-21T05:14:02.150Z,8.23
2022-08-21T05:16:37.063Z,8.50
2022-08-21T05:19:07.456Z,9.85
2022-08-21T05:21:37.082Z,10.18
2022-08-21T05:24:06.078Z,8.45
2022-08-21T05:26:45.424Z,8.95
2022-08-21T05:29:17.078Z,12.48
2022-08-21T05:31:49.003Z,10.52
2022-08-21T05:34:21.643Z,10.07
2022-08-21T05:36:50.342Z,9.05
2022-08-21T05:39:19.087Z,10.35
2022-08-21T05:41:50.382Z,9.77
2022-08-21T05:44:19.160Z,11.30
2022-08-21T05:46:49.304Z,10.00
2022-08-21T05:49:18.389Z,10.88
2022-08-21T05:51:47.180Z,12.48
2022-08-21T05:54:15.812Z,15.73
2022-08-21T05:56:45.567Z,16.77
2022-08-21T05:59:15.695Z,16.90
2022-08-21T06:01:44.502Z,16.60
2022-08-21T06:04:13.344Z,16.55
2022-08-21T06:06:42.140Z,16.25
2022-08-21T06:09:10.766Z,16.13
2022-08-21T06:11:39.563Z,16.75
2022-08-21T06:14:08.751Z,17.35
2022-08-21T06:16:38.794Z,15.73
2022-08-21T06:19:07.476Z,15.88
2022-08-21T06:21:36.160Z,15.25
2022-08-21T06:24:05.790Z,17.08
2022-08-21T06:26:34.697Z,17.13
2022-08-21T06:29:04.067Z,15.77
2022-08-21T06:31:33.023Z,16.77
2022-08-21T06:34:04.277Z,16.20
2022-08-21T06:36:32.954Z,16.75
2022-08-21T06:39:01.909Z,15.73
2022-08-21T06:41:45.037Z,16.05
2022-08-21T06:44:14.234Z,16.92
2022-08-21T06:46:44.781Z,16.33
2022-08-21T06:49:21.677Z,18.10
2022-08-21T06:51:50.506Z,17.45
2022-08-21T06:54:19.141Z,18.25
2022-08-21T06:56:47.885Z,17.50
2022-08-21T06:59:16.554Z,18.83
2022-08-21T07:01:45.440Z,17.38
2022-08-21T07:04:14.253Z,18.67
2022-08-21T07:06:44.287Z,17.77
2022-08-21T07:09:13.081Z,18.40
2022-08-21T07:11:47.507Z,18.02
2022-08-21T07:14:20.365Z,18.40
2022-08-21T07:16:49.637Z,17.63
2022-08-21T07:19:18.489Z,15.18
2022-08-21T07:21:48.833Z,17.27
2022-08-21T07:24:17.532Z,16.58
2022-08-21T07:26:46.322Z,15.02
2022-08-21T07:29:15.817Z,18.33
2022-08-21T07:31:44.513Z,16.45
2022-08-21T07:34:13.224Z,16.05
2022-08-21T07:36:41.907Z,17.17
2022-08-21T07:39:12.014Z,17.17
2022-08-21T07:41:40.726Z,15.50
2022-08-21T07:44:09.444Z,15.68
2022-08-21T07:46:41.385Z,14.00
2022-08-21T07:49:10.096Z,14.88
2022-08-21T07:51:38.845Z,14.50
2022-08-21T07:54:07.530Z,14.63
2022-08-21T07:56:37.522Z,15.27
2022-08-21T07:59:06.149Z,14.40
2022-08-21T08:01:35.011Z,16.52
2022-08-21T08:04:04.222Z,16.00
2022-08-21T08:06:32.895Z,15.50
2022-08-21T08:09:03.496Z,14.27
2022-08-21T08:11:32.669Z,14.55
2022-08-21T08:14:04.823Z,14.93
2022-08-21T08:16:33.488Z,18.02
2022-08-21T08:19:02.140Z,15.75
2022-08-21T08:21:31.206Z,14.65
2022-08-21T08:24:18.507Z,14.13
2022-08-21T08:26:53.498Z,14.10
2022-08-21T08:29:24.191Z,13.18
2022-08-21T08:31:52.928Z,13.23
2022-08-21T08:34:25.361Z,12.68
2022-08-21T08:36:54.842Z,12.45
2022-08-21T08:39:26.978Z,12.90
2022-08-21T08:42:32.881Z,12.77
2022-08-21T08:45:01.169Z,12.88
2022-08-21T08:47:33.192Z,11.48
2022-08-21T08:50:06.084Z,11.32
2022-08-21T08:52:37.893Z,10.70
2022-08-21T08:55:10.686Z,11.18
2022-08-21T08:57:44.389Z,10.15
2022-08-21T09:00:22.345Z,10.68
2022-08-21T09:02:54.718Z,10.43
2022-08-21T09:05:26.289Z,10.60
2022-08-21T09:08:36.785Z,11.23
2022-08-21T09:11:12.160Z,10.45
2022-08-21T09:13:52.153Z,10.43
2022-08-21T09:16:33.690Z,10.75
2022-08-21T09:19:10.429Z,9.68
2022-08-21T09:21:50.261Z,9.73
2022-08-21T09:24:32.409Z,9.65
2022-08-21T09:27:07.184Z,9.35
2022-08-21T09:29:39.129Z,9.75
2022-08-21T09:32:18.815Z,8.88
2022-08-21T09:34:59.516Z,10.80
2022-08-21T09:37:30.550Z,9.15
2022-08-21T09:40:00.514Z,8.73
2022-08-21T09:42:33.845Z,8.98
2022-08-21T09:45:14.772Z,7.57
2022-08-21T09:47:46.595Z,8.43
2022-08-21T09:50:17.786Z,7.13
2022-08-21T09:52:49.878Z,7.35
2022-08-21T09:55:55.519Z,6.90
2022-08-21T09:58:33.246Z,7.72
2022-08-21T10:01:05.175Z,7.40
2022-08-21T10:03:35.507Z,7.00
2022-08-21T10:06:09.612Z,8.05
2022-08-21T10:08:40.776Z,6.90
2022-08-21T10:11:13.391Z,6.50
2022-08-21T10:13:53.007Z,6.57
2022-08-21T10:16:33.075Z,5.63
2022-08-21T10:19:17.489Z,6.65
2022-08-21T10:22:04.349Z,6.75
2022-08-21T10:24:36.616Z,6.32
2022-08-21T10:27:16.617Z,6.70
2022-08-21T10:29:53.656Z,6.10
2022-08-21T10:32:33.711Z,5.82
2022-08-21T10:35:14.033Z,6.50
2022-08-21T10:38:00.613Z,5.93
2022-08-21T10:40:34.067Z,5.35
2022-08-21T10:43:17.328Z,5.65
2022-08-21T10:45:55.504Z,6.72
2022-08-21T10:48:37.722Z,6.18
2022-08-21T10:51:14.526Z,6.07
2022-08-21T10:54:03.212Z,5.93
2022-08-21T10:56:33.676Z,5.00
2022-08-21T10:59:26.641Z,4.43
2022-08-21T11:02:02.523Z,5.07
2022-08-21T11:04:46.337Z,5.60
2022-08-21T11:07:24.750Z,4.88
2022-08-21T11:09:58.374Z,4.70
2022-08-21T11:12:36.240Z,4.28
2022-08-21T11:15:19.386Z,4.25
2022-08-21T11:18:09.078Z,4.00
2022-08-21T11:20:45.040Z,4.20
2022-08-21T11:23:22.506Z,4.20
2022-08-21T11:25:55.484Z,3.92
2022-08-21T11:28:28.683Z,3.75
2022-08-21T11:31:07.662Z,3.70
2022-08-21T11:33:52.925Z,4.10
2022-08-21T11:36:31.680Z,3.95
2022-08-21T11:39:09.637Z,3.80
2022-08-21T11:41:42.829Z,3.50
2022-08-21T11:44:20.612Z,3.80
2022-08-21T11:46:54.317Z,4.00
2022-08-21T11:49:44.960Z,4.72
2022-08-21T11:52:20.369Z,3.92
2022-08-21T11:54:55.205Z,3.95
2022-08-21T11:57:27.589Z,4.05
2022-08-21T12:00:01.397Z,3.80
2022-08-21T12:02:35.705Z,4.00
2022-08-21T12:05:09.208Z,3.45
2022-08-21T12:07:40.833Z,3.70
2022-08-21T12:10:13.539Z,3.90
2022-08-21T12:12:44.623Z,3.53
2022-08-21T12:15:26.794Z,4.25
2022-08-21T12:17:59.077Z,4.18
2022-08-21T12:20:50.638Z,4.57
2022-08-21T12:23:27.937Z,3.55
2022-08-21T12:26:15.756Z,4.03
2022-08-21T12:28:44.594Z,4.00
2022-08-21T12:31:21.578Z,4.53
2022-08-21T12:33:56.279Z,4.07
2022-08-21T12:36:29.724Z,4.30
2022-08-21T12:39:01.855Z,4.50
2022-08-21T12:41:43.674Z,3.50
2022-08-21T12:44:17.203Z,3.78
2022-08-21T12:46:50.305Z,3.55
2022-08-21T12:49:26.870Z,3.90
2022-08-21T12:51:58.679Z,3.00
2022-08-21T12:54:31.057Z,3.50
2022-08-21T12:57:04.139Z,3.38
2022-08-21T12:59:33.872Z,3.30
2022-08-21T13:02:11.690Z,3.58
2022-08-21T13:04:43.219Z,3.53
2022-08-21T13:07:15.266Z,3.88
2022-08-21T13:09:49.362Z,4.30
2022-08-21T13:12:21.616Z,4.13
2022-08-21T13:14:52.995Z,4.07
2022-08-21T13:17:25.539Z,3.88
2022-08-21T13:20:00.825Z,4.07
2022-08-21T13:22:33.586Z,4.03
2022-08-21T13:25:07.227Z,4.18
2022-08-21T13:27:37.552Z,3.92
2022-08-21T13:30:10.881Z,3.90
2022-08-21T13:32:43.044Z,3.97
2022-08-21T13:35:19.091Z,3.90
2022-08-21T13:37:49.537Z,4.03
2022-08-21T13:40:22.045Z,4.90
2022-08-21T13:42:52.441Z,4.28
2022-08-21T13:45:28.564Z,4.00
2022-08-21T13:47:57.711Z,3.85
2022-08-21T13:50:27.993Z,3.60
2022-08-21T13:53:00.647Z,3.58
2022-08-21T13:55:38.637Z,3.42
2022-08-21T13:58:09.850Z,3.30
2022-08-21T14:00:48.001Z,3.47
2022-08-21T14:03:30.550Z,3.22
2022-08-21T14:06:00.383Z,3.60
2022-08-21T14:08:34.304Z,3.13
2022-08-21T14:11:05.550Z,3.70
2022-08-21T14:13:42.601Z,3.50
2022-08-21T14:16:17.785Z,3.78
2022-08-21T14:18:49.422Z,3.53
2022-08-21T14:21:30.039Z,4.70
2022-08-21T14:24:05.238Z,3.35
2022-08-21T14:26:37.053Z,3.45
2022-08-21T14:29:10.957Z,4.32
2022-08-21T14:31:43.344Z,3.33
2022-08-21T14:34:19.658Z,3.33
2022-08-21T14:36:50.081Z,3.35
2022-08-21T14:39:19.009Z,3.60
2022-08-21T14:41:49.413Z,3.33
2022-08-21T14:44:20.600Z,3.30
2022-08-21T14:46:55.765Z,3.15
2022-08-21T14:49:28.707Z,3.58
2022-08-21T14:51:59.216Z,3.28
2022-08-21T14:54:31.469Z,3.17
2022-08-21T14:57:03.462Z,2.40
2022-08-21T14:59:34.516Z,2.80
2022-08-21T15:02:05.172Z,2.63
2022-08-21T15:04:34.201Z,2.63
2022-08-21T15:07:03.542Z,2.25
2022-08-21T15:09:32.159Z,2.63
2022-08-21T15:12:02.854Z,2.65
2022-08-21T15:14:35.647Z,2.38
2022-08-21T15:17:05.630Z,2.72
2022-08-21T15:19:35.650Z,2.97
2022-08-21T15:22:04.770Z,3.08
2022-08-21T15:24:34.229Z,3.20
2022-08-21T15:27:05.442Z,2.50
2022-08-21T15:29:35.690Z,3.10
2022-08-21T15:32:19.305Z,2.95
2022-08-21T15:34:48.097Z,3.20
2022-08-21T15:37:16.936Z,3.00
2022-08-21T15:39:49.604Z,2.63
2022-08-21T15:42:23.315Z,2.60
2022-08-21T15:44:54.906Z,2.78
2022-08-21T15:47:26.921Z,2.80
2022-08-21T15:49:55.639Z,2.30
2022-08-21T15:52:24.788Z,2.38
2022-08-21T15:54:54.142Z,2.42
2022-08-21T15:57:25.598Z,2.35
2022-08-21T15:59:59.541Z,2.40
2022-08-21T16:02:31.165Z,2.60
2022-08-21T16:05:00.257Z,2.17
2022-08-21T16:07:29.159Z,2.30
2022-08-21T16:09:58.053Z,2.25
2022-08-21T16:12:31.740Z,2.40
2022-08-21T16:15:03.298Z,2.83
2022-08-21T16:17:34.883Z,2.67
2022-08-21T16:20:07.749Z,3.10
2022-08-21T16:22:41.704Z,2.65
2022-08-21T16:25:17.922Z,2.40
2022-08-21T16:27:50.252Z,2.22
2022-08-21T16:30:22.159Z,2.63
2022-08-21T16:32:51.299Z,2.63
2022-08-21T16:35:21.950Z,2.53
2022-08-21T16:37:53.355Z,2.50
2022-08-21T16:40:24.058Z,2.75
2022-08-21T16:42:53.392Z,2.70
2022-08-21T16:45:23.653Z,2.28
2022-08-21T16:47:52.583Z,2.17
2022-08-21T16:50:24.030Z,2.20
2022-08-21T16:52:54.342Z,2.20
2022-08-21T16:55:23.123Z,2.20
2022-08-21T16:57:51.934Z,2.72
2022-08-21T17:00:20.883Z,2.13
2022-08-21T17:02:54.783Z,2.10
2022-08-21T17:05:23.580Z,2.42
2022-08-21T17:07:52.334Z,2.22
2022-08-21T17:10:21.620Z,2.22
2022-08-21T17:12:55.860Z,2.50
2022-08-21T17:15:28.408Z,2.08
2022-08-21T17:17:58.709Z,2.45
2022-08-21T17:20:27.802Z,2.30
2022-08-21T17:22:56.500Z,2.28
2022-08-21T17:25:26.264Z,2.58
2022-08-21T17:27:56.535Z,3.70
2022-08-21T17:30:25.375Z,3.17
2022-08-21T17:32:56.544Z,3.20
2022-08-21T17:35:27.078Z,3.17
2022-08-21T17:37:55.824Z,3.13
2022-08-21T17:40:26.257Z,3.50
2022-08-21T17:42:55.101Z,4.10
2022-08-21T17:45:24.662Z,8.32
2022-08-21T17:47:53.399Z,11.02
2022-08-21T17:50:23.219Z,13.32
2022-08-21T17:52:53.514Z,14.68
2022-08-21T17:55:23.112Z,13.43
2022-08-21T17:57:53.164Z,10.48
2022-08-21T18:00:23.265Z,8.07
2022-08-21T18:03:00.131Z,4.95
2022-08-21T18:05:29.681Z,4.20
2022-08-21T18:07:59.775Z,4.75
2022-08-21T18:10:29.061Z,4.35
2022-08-21T18:12:58.914Z,5.30
2022-08-21T18:15:27.909Z,6.55
2022-08-21T18:17:56.729Z,4.38
2022-08-21T18:20:25.521Z,3.83
2022-08-21T18:22:54.465Z,3.70
2022-08-21T18:25:24.674Z,3.38
2022-08-21T18:27:53.558Z,3.60
2022-08-21T18:30:24.711Z,4.03
2022-08-21T18:32:56.018Z,3.75
2022-08-21T18:35:24.997Z,3.78
2022-08-21T18:37:53.726Z,3.25
2022-08-21T18:40:23.968Z,3.53
2022-08-21T18:42:55.669Z,3.42
2022-08-21T18:45:28.276Z,8.70
2022-08-21T18:47:59.578Z,8.50
2022-08-21T18:50:30.339Z,4.72
2022-08-21T18:52:59.070Z,4.75
2022-08-21T18:55:29.971Z,6.20
2022-08-21T18:57:59.668Z,4.88
2022-08-21T19:00:33.130Z,3.60
2022-08-21T19:03:02.673Z,3.42
2022-08-21T19:05:35.262Z,3.95
2022-08-21T19:08:06.061Z,3.53
2022-08-21T19:10:37.447Z,4.18
2022-08-21T19:13:14.553Z,3.60
2022-08-21T19:15:46.731Z,3.97
2022-08-21T19:21:07.804Z,3.83
2022-08-21T19:23:36.947Z,3.70
2022-08-21T19:26:12.122Z,3.42
2022-08-21T19:28:44.894Z,3.95
2022-08-21T19:31:16.932Z,4.13
2022-08-21T19:33:55.098Z,3.90
2022-08-21T19:36:26.955Z,4.05
2022-08-21T19:38:55.708Z,3.90
2022-08-21T19:41:28.404Z,4.68
2022-08-21T19:43:59.674Z,6.00
2022-08-21T19:46:35.073Z,5.05
2022-08-21T19:49:08.528Z,4.20
2022-08-21T19:51:40.012Z,4.03
2022-08-21T19:54:16.449Z,3.97
2022-08-21T19:56:48.598Z,3.90
2022-08-21T19:59:24.819Z,4.20
2022-08-21T20:01:53.935Z,3.88
2022-08-21T20:04:24.143Z,3.75
2022-08-21T20:06:56.234Z,3.85
2022-08-21T20:09:24.942Z,3.92
2022-08-21T20:11:57.609Z,4.95
2022-08-21T20:14:30.512Z,4.55
2022-08-21T20:17:05.650Z,4.90
2022-08-21T20:19:34.303Z,5.25
2022-08-21T20:22:03.349Z,4.55
2022-08-21T20:24:33.099Z,3.88
2022-08-21T20:27:06.318Z,4.22
2022-08-21T20:29:39.180Z,4.38
2022-08-21T20:32:12.303Z,4.82
2022-08-21T20:34:41.309Z,4.57
2022-08-21T20:37:14.060Z,4.45
2022-08-21T20:40:04.853Z,6.20
2022-08-21T20:42:35.313Z,6.82
2022-08-21T20:48:00.300Z,8.20
2022-08-21T20:50:31.338Z,6.20
2022-08-21T20:53:06.685Z,6.97
2022-08-21T20:55:38.365Z,6.85
2022-08-21T21:01:06.245Z,5.72
2022-08-21T21:03:39.399Z,5.50
2022-08-21T21:06:14.202Z,5.93
2022-08-21T21:08:48.974Z,5.20
2022-08-21T21:11:22.272Z,5.28
2022-08-21T21:13:57.318Z,5.50
2022-08-21T21:16:29.318Z,5.60
2022-08-21T21:19:02.800Z,5.72
2022-08-21T21:21:34.917Z,5.80
2022-08-21T21:24:08.417Z,6.70
2022-08-21T21:26:48.618Z,5.97
2022-08-21T21:29:23.827Z,9.60
2022-08-21T21:31:53.938Z,6.13
2022-08-21T21:34:23.771Z,5.82
2022-08-21T21:36:59.307Z,5.90
2022-08-21T21:42:31.300Z,5.38
2022-08-21T21:45:18.210Z,5.35
2022-08-21T21:47:59.195Z,5.43
2022-08-21T21:50:46.740Z,5.88
2022-08-21T21:53:29.106Z,5.30
2022-08-21T21:56:14.883Z,5.70
2022-08-21T21:59:06.380Z,5.90
2022-08-21T22:01:46.431Z,5.45
2022-08-21T22:04:23.563Z,5.72
2022-08-21T22:07:03.826Z,5.10
2022-08-21T22:09:42.762Z,5.97
2022-08-21T22:15:26.327Z,5.25
2022-08-21T22:18:02.790Z,6.18
2022-08-21T22:20:38.676Z,5.05
2022-08-21T22:23:16.014Z,5.68
2022-08-21T22:25:48.586Z,5.43
2022-08-21T22:28:22.352Z,5.45
2022-08-21T22:30:58.248Z,5.47
2022-08-21T22:33:30.392Z,5.57
2022-08-21T22:35:59.232Z,5.78
2022-08-21T22:38:36.097Z,5.30
2022-08-21T22:41:13.853Z,5.88
2022-08-21T22:43:57.455Z,5.63
2022-08-21T22:46:43.800Z,5.70
2022-08-21T22:49:25.121Z,6.18
2022-08-21T22:51:58.726Z,5.20
2022-08-21T22:54:35.277Z,5.57
2022-08-21T22:57:09.157Z,5.70
2022-08-21T22:59:42.949Z,5.47
2022-08-21T23:02:29.860Z,6.10
2022-08-21T23:05:02.268Z,5.82
2022-08-21T23:07:35.115Z,5.82
2022-08-21T23:10:22.008Z,6.15
2022-08-21T23:13:00.785Z,5.18
2022-08-21T23:15:35.794Z,5.57
2022-08-21T23:18:13.724Z,5.18
2022-08-21T23:20:56.149Z,5.90
2022-08-21T23:23:27.955Z,5.70
2022-08-21T23:29:13.483Z,5.70
2022-08-21T23:32:03.679Z,5.72
2022-08-21T23:34:42.296Z,5.88
2022-08-21T23:37:49.034Z,6.13
2022-08-21T23:40:51.236Z,6.25
2022-08-21T23:43:41.571Z,5.53
2022-08-21T23:46:33.791Z,5.22
2022-08-21T23:52:16.140Z,5.78
2022-08-21T23:55:02.795Z,5.97
2022-08-21T23:57:48.021Z,6.05
